Time;durP1;ratioP1;P1;durP2;ratioP2;P2;SDS_P1;SDS_P2;PMS_P1;PMS_P2;Temp;Humidity;BMP_temperature;BMP_pressure;BME280_temperature;BME280_humidity;BME280_pressure;Samples;Min_cycle;Max_cycle;Signal;HPM_P1;HPM_P2
2023/04/21 00:00:23;;;;;;;24.45;17.92;;;9.20;99.90;;;;;;5026794;28;20049;-94
2023/04/21 00:02:49;;;;;;;23.70;16.70;;;9.10;99.90;;;;;;5025431;28;20080;-92
2023/04/21 00:05:14;;;;;;;27.92;17.83;;;9.10;99.90;;;;;;5025953;28;20068;-91
2023/04/21 00:07:40;;;;;;;24.27;17.02;;;9.10;99.90;;;;;;5036007;28;20041;-93
2023/04/21 00:10:10;;;;;;;22.80;16.65;;;9.10;99.90;;;;;;5023062;28;20170;-94
2023/04/21 00:12:36;;;;;;;29.98;16.52;;;9.10;99.90;;;;;;5025869;28;20136;-92
2023/04/21 00:15:03;;;;;;;21.98;15.65;;;9.10;99.90;;;;;;5021141;28;20339;-94
2023/04/21 00:17:29;;;;;;;22.98;15.55;;;9.10;99.90;;;;;;5042052;28;20091;-93
2023/04/21 00:19:56;;;;;;;27.63;16.58;;;9.10;99.90;;;;;;5021502;28;20041;-93
2023/04/21 00:22:24;;;;;;;24.85;15.45;;;9.00;99.90;;;;;;5023997;28;20420;-94
2023/04/21 00:24:50;;;;;;;22.52;16.00;;;9.00;99.90;;;;;;5021963;28;20239;-92
2023/04/21 00:27:16;;;;;;;22.63;15.75;;;9.00;99.90;;;;;;5041102;28;20187;-93
2023/04/21 00:29:41;;;;;;;24.40;16.38;;;8.90;99.90;;;;;;5039963;28;20140;-92
2023/04/21 00:32:08;;;;;;;26.45;16.45;;;8.90;99.90;;;;;;5039871;28;20056;-92
2023/04/21 00:34:35;;;;;;;23.33;15.45;;;8.80;99.90;;;;;;5019983;28;20472;-94
2023/04/21 00:37:01;;;;;;;26.52;16.55;;;8.80;99.90;;;;;;5026087;28;20036;-94
2023/04/21 00:39:27;;;;;;;22.83;15.23;;;8.80;99.90;;;;;;5021209;28;20065;-93
2023/04/21 00:41:53;;;;;;;23.63;15.85;;;8.80;99.90;;;;;;5022089;28;20489;-92
2023/04/21 00:44:18;;;;;;;23.30;15.73;;;8.70;99.90;;;;;;5038149;28;20410;-92
2023/04/21 00:46:44;;;;;;;21.30;14.93;;;8.70;99.90;;;;;;5037915;28;20059;-94
2023/04/21 00:49:12;;;;;;;23.23;16.38;;;8.70;99.90;;;;;;5037051;28;20103;-93
2023/04/21 00:51:37;;;;;;;22.67;16.02;;;8.70;99.90;;;;;;5022673;28;20333;-92
2023/04/21 00:54:05;;;;;;;25.55;16.52;;;8.60;99.90;;;;;;5037413;28;20679;-93
2023/04/21 00:56:33;;;;;;;23.83;16.08;;;8.60;99.90;;;;;;5023934;28;20281;-92
2023/04/21 00:59:00;;;;;;;22.42;16.58;;;8.60;99.90;;;;;;5020143;28;20040;-93
2023/04/21 01:01:28;;;;;;;23.20;16.25;;;8.60;99.90;;;;;;5039252;28;20048;-93
2023/04/21 01:03:59;;;;;;;19.40;14.68;;;8.60;99.90;;;;;;5019998;28;20087;-92
2023/04/21 01:06:31;;;;;;;23.90;16.48;;;8.60;99.90;;;;;;5024560;28;20209;-93
2023/04/21 01:08:56;;;;;;;25.50;15.48;;;8.50;99.90;;;;;;5019798;28;20500;-93
2023/04/21 01:11:22;;;;;;;25.15;15.90;;;8.50;99.90;;;;;;5018849;28;20125;-92
2023/04/21 01:13:52;;;;;;;25.00;15.93;;;8.50;99.90;;;;;;5024723;28;20467;-93
2023/04/21 01:16:18;;;;;;;22.15;15.23;;;8.50;99.90;;;;;;5026716;28;20292;-92
2023/04/21 01:18:45;;;;;;;21.52;15.52;;;8.40;99.90;;;;;;5022321;28;20040;-93
2023/04/21 01:21:11;;;;;;;24.92;16.15;;;8.40;99.90;;;;;;5038374;28;20138;-94
2023/04/21 01:23:40;;;;;;;19.90;14.82;;;8.40;99.90;;;;;;5022584;28;20041;-94
2023/04/21 01:26:06;;;;;;;27.58;15.88;;;8.40;99.90;;;;;;5034434;28;20116;-94
2023/04/21 01:28:32;;;;;;;24.23;16.00;;;8.40;99.90;;;;;;5020603;28;20448;-94
2023/04/21 01:30:58;;;;;;;23.35;16.05;;;8.30;99.90;;;;;;5037655;28;20048;-94
2023/04/21 01:33:24;;;;;;;19.77;14.57;;;8.40;99.90;;;;;;5020284;28;20033;-94
2023/04/21 01:35:50;;;;;;;23.05;16.33;;;8.30;99.90;;;;;;5036966;28;20041;-95
2023/04/21 01:38:18;;;;;;;22.50;15.63;;;8.40;99.90;;;;;;5022326;28;20037;-93
2023/04/21 01:40:48;;;;;;;21.05;15.30;;;8.40;99.90;;;;;;5022448;28;20086;-93
2023/04/21 01:43:15;;;;;;;21.15;14.77;;;8.30;99.90;;;;;;5023853;28;20079;-94
2023/04/21 01:45:41;;;;;;;22.23;15.57;;;8.40;99.90;;;;;;5037901;28;20125;-92
2023/04/21 01:48:07;;;;;;;22.45;15.40;;;8.30;99.90;;;;;;5024713;28;20127;-94
2023/04/21 01:50:32;;;;;;;24.98;16.10;;;8.30;99.90;;;;;;5037839;28;20034;-93
2023/04/21 01:52:58;;;;;;;25.80;15.43;;;8.30;99.90;;;;;;5036594;28;20562;-94
2023/04/21 01:55:24;;;;;;;22.65;15.07;;;8.30;99.90;;;;;;5021430;28;20143;-93
2023/04/21 01:57:52;;;;;;;27.38;16.85;;;8.30;99.90;;;;;;5035089;28;20397;-93
2023/04/21 02:00:18;;;;;;;22.45;15.20;;;8.20;99.90;;;;;;5019446;28;20124;-93
2023/04/21 02:02:44;;;;;;;25.05;16.60;;;8.30;99.90;;;;;;5016247;28;20143;-93
2023/04/21 02:05:09;;;;;;;25.00;15.52;;;8.20;99.90;;;;;;5021018;28;20043;-93
2023/04/21 02:07:35;;;;;;;23.15;16.23;;;8.20;99.90;;;;;;5022716;28;20434;-93
2023/04/21 02:10:01;;;;;;;22.73;16.15;;;8.20;99.90;;;;;;5033982;28;20379;-93
2023/04/21 02:12:26;;;;;;;27.45;15.88;;;8.20;99.90;;;;;;5035631;28;20069;-93
2023/04/21 02:14:52;;;;;;;24.92;15.65;;;8.20;99.90;;;;;;5034459;28;20041;-93
2023/04/21 02:17:18;;;;;;;25.45;16.48;;;8.20;99.90;;;;;;5037115;28;20094;-94
2023/04/21 02:19:44;;;;;;;23.10;15.63;;;8.10;99.90;;;;;;5038214;28;20511;-92
2023/04/21 02:22:11;;;;;;;26.30;16.10;;;8.10;99.90;;;;;;5038713;28;20582;-92
2023/04/21 02:24:37;;;;;;;25.70;16.80;;;8.10;99.90;;;;;;5035936;28;20045;-93
2023/04/21 02:27:03;;;;;;;26.25;17.38;;;8.10;99.90;;;;;;5024310;28;20482;-93
2023/04/21 02:29:29;;;;;;;23.42;17.25;;;8.10;99.90;;;;;;5019264;28;20039;-93
2023/04/21 02:31:54;;;;;;;29.45;17.40;;;8.10;99.90;;;;;;5021673;28;20124;-93
2023/04/21 02:34:20;;;;;;;24.02;16.98;;;8.10;99.90;;;;;;5021795;28;20037;-93
2023/04/21 02:36:46;;;;;;;20.95;15.70;;;8.10;99.90;;;;;;5021947;28;20460;-92
2023/04/21 02:39:12;;;;;;;24.95;16.35;;;8.10;99.90;;;;;;5037576;28;20036;-92
2023/04/21 02:41:38;;;;;;;25.00;16.15;;;8.20;99.90;;;;;;5017292;28;20041;-93
2023/04/21 02:44:04;;;;;;;25.80;16.40;;;8.10;99.90;;;;;;5034844;28;20132;-94
2023/04/21 02:46:30;;;;;;;24.40;16.77;;;8.20;99.90;;;;;;5022117;28;20093;-95
2023/04/21 02:48:56;;;;;;;25.20;16.90;;;8.10;99.90;;;;;;5024215;28;20072;-93
2023/04/21 02:51:22;;;;;;;23.33;16.42;;;8.10;99.90;;;;;;5019969;28;20045;-93
2023/04/21 02:53:47;;;;;;;26.60;16.00;;;8.10;99.90;;;;;;5018682;28;20043;-93
2023/04/21 02:56:16;;;;;;;24.77;16.38;;;8.10;99.90;;;;;;5019000;28;20055;-93
2023/04/21 02:58:42;;;;;;;24.95;17.48;;;8.00;99.90;;;;;;5036118;28;20051;-94
2023/04/21 03:01:08;;;;;;;25.02;16.42;;;8.00;99.90;;;;;;5019005;28;20037;-93
2023/04/21 03:03:33;;;;;;;24.85;16.35;;;7.90;99.90;;;;;;5040425;28;20228;-93
2023/04/21 03:06:01;;;;;;;26.35;17.45;;;8.00;99.90;;;;;;5020480;28;20082;-94
2023/04/21 03:08:27;;;;;;;25.88;17.05;;;7.90;99.90;;;;;;5016897;28;20045;-94
2023/04/21 03:10:52;;;;;;;29.08;17.55;;;7.90;99.90;;;;;;5034276;28;20036;-94
2023/04/21 03:13:19;;;;;;;28.05;16.65;;;7.90;99.90;;;;;;5018696;28;20102;-93
2023/04/21 03:15:45;;;;;;;24.95;16.50;;;7.90;99.90;;;;;;5019617;28;20140;-93
2023/04/21 03:18:11;;;;;;;28.50;17.63;;;7.80;99.90;;;;;;5018521;28;20037;-94
2023/04/21 03:20:36;;;;;;;27.77;16.85;;;7.80;99.90;;;;;;5020838;28;20442;-94
2023/04/21 03:23:02;;;;;;;24.10;16.33;;;7.80;99.90;;;;;;5032912;28;20290;-94
2023/04/21 03:25:28;;;;;;;28.70;17.00;;;7.80;99.90;;;;;;5018197;28;20041;-94
2023/04/21 03:27:54;;;;;;;28.67;16.55;;;7.80;99.90;;;;;;5033538;28;20065;-94
2023/04/21 03:30:26;;;;;;;27.20;15.75;;;7.80;99.90;;;;;;5019456;28;20532;-93
2023/04/21 03:32:54;;;;;;;25.00;16.13;;;7.70;99.90;;;;;;5018126;28;20045;-93
2023/04/21 03:35:20;;;;;;;26.02;17.50;;;7.70;99.90;;;;;;5019096;28;20037;-93
2023/04/21 03:37:46;;;;;;;28.42;16.58;;;7.70;99.90;;;;;;5021999;28;20048;-94
2023/04/21 03:40:12;;;;;;;23.45;16.50;;;7.70;99.90;;;;;;5042031;28;20061;-92
2023/04/21 03:42:40;;;;;;;26.67;17.42;;;7.70;99.90;;;;;;5024706;28;20083;-93
2023/04/21 03:45:08;;;;;;;22.65;15.65;;;7.70;99.90;;;;;;5042513;28;20047;-93
2023/04/21 03:47:35;;;;;;;22.52;15.77;;;7.70;99.90;;;;;;5039537;28;20044;-92
2023/04/21 03:50:04;;;;;;;19.98;15.10;;;7.70;99.90;;;;;;5025994;28;20064;-93
2023/04/21 03:52:32;;;;;;;23.98;16.50;;;7.70;99.90;;;;;;5021246;28;20033;-93
2023/04/21 03:54:58;;;;;;;23.98;14.85;;;7.70;99.90;;;;;;5045048;28;20370;-93
2023/04/21 03:57:24;;;;;;;25.58;15.45;;;7.70;99.90;;;;;;5026498;28;20033;-92
2023/04/21 03:59:50;;;;;;;24.70;16.00;;;7.80;99.90;;;;;;5022610;28;20041;-93
2023/04/21 04:02:15;;;;;;;21.77;14.63;;;7.80;99.90;;;;;;5040579;28;20037;-94
2023/04/21 04:04:41;;;;;;;20.80;14.95;;;7.80;99.90;;;;;;5023950;28;20262;-93
2023/04/21 04:07:07;;;;;;;20.88;14.52;;;7.80;99.90;;;;;;5038743;28;20456;-93
2023/04/21 04:09:36;;;;;;;21.42;15.02;;;7.80;99.90;;;;;;5021990;28;20097;-93
2023/04/21 04:12:02;;;;;;;20.90;14.57;;;7.80;99.90;;;;;;5023470;28;20818;-93
2023/04/21 04:14:28;;;;;;;24.02;15.13;;;7.80;99.90;;;;;;5040875;28;20059;-94
2023/04/21 04:16:55;;;;;;;22.27;14.73;;;7.80;99.90;;;;;;5022920;28;20072;-94
2023/04/21 04:19:21;;;;;;;21.40;15.02;;;7.90;99.90;;;;;;5024731;28;20118;-93
2023/04/21 04:21:46;;;;;;;22.08;14.77;;;7.90;99.90;;;;;;5019156;28;20037;-93
2023/04/21 04:24:13;;;;;;;21.80;14.55;;;7.80;99.90;;;;;;5023574;28;20082;-92
2023/04/21 04:26:41;;;;;;;21.15;13.98;;;7.90;99.90;;;;;;5035851;28;20449;-93
2023/04/21 04:29:09;;;;;;;21.17;14.10;;;7.90;99.90;;;;;;5037757;28;20038;-92
2023/04/21 04:31:35;;;;;;;20.92;13.82;;;7.90;99.90;;;;;;5021749;28;20052;-94
2023/04/21 04:34:00;;;;;;;21.90;15.20;;;7.90;99.90;;;;;;5025774;28;20040;-93
2023/04/21 04:36:27;;;;;;;22.77;13.82;;;7.90;99.90;;;;;;5024175;28;20507;-92
2023/04/21 04:38:52;;;;;;;20.88;14.20;;;7.90;99.90;;;;;;5022030;28;20037;-94
2023/04/21 04:41:19;;;;;;;24.40;14.35;;;8.00;99.90;;;;;;5025918;28;20393;-93
2023/04/21 04:43:46;;;;;;;23.85;14.27;;;8.00;99.90;;;;;;5040455;28;20045;-94
2023/04/21 04:46:12;;;;;;;21.63;14.15;;;7.90;99.90;;;;;;5020965;28;21324;-93
2023/04/21 04:48:38;;;;;;;20.63;14.43;;;8.00;99.90;;;;;;5021666;28;20040;-94
2023/04/21 04:51:04;;;;;;;23.13;14.50;;;8.00;99.90;;;;;;5041551;28;20041;-94
2023/04/21 04:53:31;;;;;;;22.63;13.75;;;8.00;99.90;;;;;;5025812;28;20039;-93
2023/04/21 04:55:58;;;;;;;23.63;13.52;;;8.10;99.90;;;;;;5036657;28;20907;-93
2023/04/21 04:58:24;;;;;;;22.13;14.55;;;8.10;99.90;;;;;;5019379;28;20160;-93
2023/04/21 05:00:50;;;;;;;19.85;13.45;;;8.10;99.90;;;;;;5022882;28;20037;-93
2023/04/21 05:03:16;;;;;;;23.48;14.23;;;8.10;99.90;;;;;;5016211;28;20106;-93
2023/04/21 05:05:42;;;;;;;20.70;13.85;;;8.20;99.90;;;;;;5024119;28;20456;-92
2023/04/21 05:08:07;;;;;;;19.38;13.82;;;8.20;99.90;;;;;;5024859;28;20108;-93
2023/04/21 05:10:33;;;;;;;22.17;13.35;;;8.20;99.90;;;;;;5019496;28;20531;-93
2023/04/21 05:12:59;;;;;;;18.83;13.40;;;8.30;99.90;;;;;;5023204;28;20464;-93
2023/04/21 05:15:28;;;;;;;22.58;13.85;;;8.30;99.90;;;;;;5021707;28;20044;-93
2023/04/21 05:17:56;;;;;;;21.48;13.30;;;8.30;99.90;;;;;;5021823;28;20340;-93
2023/04/21 05:20:25;;;;;;;19.58;12.85;;;8.40;99.90;;;;;;5022023;28;20053;-93
2023/04/21 05:22:50;;;;;;;18.75;13.30;;;8.40;99.90;;;;;;5038405;28;20091;-93
2023/04/21 05:25:16;;;;;;;19.20;13.55;;;8.40;99.90;;;;;;5024627;28;20733;-93
2023/04/21 05:27:45;;;;;;;23.90;13.88;;;8.50;99.90;;;;;;5020862;28;20399;-93
2023/04/21 05:30:10;;;;;;;19.35;13.68;;;8.50;99.90;;;;;;5021136;28;20398;-94
2023/04/21 05:32:36;;;;;;;21.10;12.25;;;8.60;99.90;;;;;;5018881;28;20266;-92
2023/04/21 05:35:02;;;;;;;18.08;12.82;;;8.60;99.90;;;;;;5027775;28;20051;-92
2023/04/21 05:37:28;;;;;;;23.65;13.05;;;8.70;99.90;;;;;;5039430;28;20091;-93
2023/04/21 05:39:54;;;;;;;18.85;12.55;;;8.70;99.90;;;;;;5021129;28;20041;-93
2023/04/21 05:42:20;;;;;;;17.00;12.55;;;8.80;99.90;;;;;;5021102;28;20043;-94
2023/04/21 05:44:48;;;;;;;23.05;12.55;;;8.80;99.90;;;;;;5021519;28;20044;-93
2023/04/21 05:47:14;;;;;;;22.13;13.02;;;8.90;99.90;;;;;;5018432;28;20128;-92
2023/04/21 05:49:40;;;;;;;20.65;13.00;;;8.90;99.90;;;;;;5026020;28;20168;-93
2023/04/21 05:52:09;;;;;;;17.42;12.23;;;9.00;99.90;;;;;;5019096;28;20112;-93
2023/04/21 05:54:35;;;;;;;20.70;12.93;;;9.00;99.90;;;;;;5036135;28;21131;-93
2023/04/21 05:57:00;;;;;;;18.65;11.85;;;9.10;99.90;;;;;;5027574;28;20438;-92
2023/04/21 05:59:30;;;;;;;18.13;12.73;;;9.20;99.90;;;;;;5036047;28;20526;-93
2023/04/21 06:01:55;;;;;;;19.10;12.48;;;9.30;99.90;;;;;;5019471;28;20043;-93
2023/04/21 06:04:21;;;;;;;17.17;12.48;;;9.30;99.90;;;;;;5023081;28;20053;-94
2023/04/21 06:06:47;;;;;;;20.33;12.63;;;9.40;99.90;;;;;;5023242;28;20068;-93
2023/04/21 06:09:14;;;;;;;17.45;12.65;;;9.40;99.90;;;;;;5022839;28;20350;-93
2023/04/21 06:11:40;;;;;;;18.02;12.25;;;9.50;99.90;;;;;;5037062;28;20040;-93
2023/04/21 06:14:06;;;;;;;20.30;13.05;;;9.50;99.90;;;;;;5022413;28;20076;-93
2023/04/21 06:16:33;;;;;;;19.55;12.65;;;9.70;99.90;;;;;;5012963;28;20069;-94
2023/04/21 06:18:59;;;;;;;18.40;13.18;;;9.70;99.90;;;;;;5018271;28;20056;-92
2023/04/21 06:21:25;;;;;;;20.50;14.25;;;9.70;99.90;;;;;;5038329;28;20069;-93
2023/04/21 06:23:50;;;;;;;20.75;13.90;;;9.80;99.90;;;;;;5023583;28;20085;-93
2023/04/21 06:26:16;;;;;;;20.95;14.20;;;9.80;99.90;;;;;;5021684;28;20287;-93
2023/04/21 06:28:41;;;;;;;17.52;13.23;;;9.90;99.90;;;;;;5033386;28;20412;-93
2023/04/21 06:31:08;;;;;;;20.15;13.98;;;10.00;99.90;;;;;;5019135;28;20186;-93
2023/04/21 06:33:34;;;;;;;17.45;13.63;;;10.10;99.90;;;;;;5018434;28;20888;-93
2023/04/21 06:36:00;;;;;;;18.42;13.10;;;10.10;99.90;;;;;;5023453;28;20033;-94
2023/04/21 06:38:26;;;;;;;18.85;11.82;;;10.10;99.90;;;;;;5024281;28;20488;-92
2023/04/21 06:40:52;;;;;;;19.33;12.15;;;10.20;99.90;;;;;;5018058;28;20036;-93
2023/04/21 06:43:17;;;;;;;22.38;12.23;;;10.30;99.90;;;;;;5038959;28;20047;-93
2023/04/21 06:45:43;;;;;;;17.75;12.27;;;10.30;99.90;;;;;;5015877;28;20207;-94
2023/04/21 06:48:09;;;;;;;21.10;12.63;;;10.40;99.90;;;;;;5022643;28;20079;-92
2023/04/21 06:50:34;;;;;;;16.85;11.52;;;10.50;99.90;;;;;;5021985;28;20048;-93
2023/04/21 06:53:00;;;;;;;17.80;11.77;;;10.60;99.90;;;;;;5020034;28;20040;-93
2023/04/21 06:55:29;;;;;;;19.90;11.70;;;10.70;99.90;;;;;;5036180;28;20044;-93
2023/04/21 06:57:55;;;;;;;17.80;11.82;;;10.80;99.90;;;;;;5022597;28;20041;-93
2023/04/21 07:00:21;;;;;;;19.08;12.02;;;10.90;99.90;;;;;;5022261;28;20445;-93
2023/04/21 07:02:47;;;;;;;18.20;11.52;;;10.90;99.90;;;;;;5018362;28;20093;-94
2023/04/21 07:05:14;;;;;;;20.63;11.80;;;10.90;99.90;;;;;;5020138;28;20426;-93
2023/04/21 07:07:40;;;;;;;21.88;12.02;;;11.10;99.90;;;;;;5024938;28;20041;-93
2023/04/21 07:10:09;;;;;;;16.48;11.52;;;11.20;99.90;;;;;;5023759;28;20075;-94
2023/04/21 07:12:35;;;;;;;16.92;11.45;;;11.30;99.90;;;;;;5021920;28;20057;-94
2023/04/21 07:15:00;;;;;;;21.48;10.93;;;11.40;99.90;;;;;;5042238;28;20493;-94
2023/04/21 07:17:26;;;;;;;17.85;11.07;;;11.40;99.90;;;;;;5044960;28;20073;-93
2023/04/21 07:19:52;;;;;;;19.08;11.18;;;11.50;99.90;;;;;;5042303;28;20599;-93
2023/04/21 07:22:17;;;;;;;18.42;11.20;;;11.60;99.90;;;;;;5030190;28;20536;-94
2023/04/21 07:24:43;;;;;;;19.38;10.98;;;11.70;99.90;;;;;;5024758;28;21004;-94
2023/04/21 07:27:08;;;;;;;16.63;10.75;;;11.80;99.90;;;;;;5045723;28;20047;-95
2023/04/21 07:29:36;;;;;;;15.82;10.93;;;12.00;99.90;;;;;;5038629;28;20052;-93
2023/04/21 07:32:01;;;;;;;14.85;10.63;;;12.10;99.90;;;;;;5022278;28;20033;-93
2023/04/21 07:34:27;;;;;;;13.75;10.63;;;12.40;99.90;;;;;;5042565;28;20055;-94
2023/04/21 07:36:54;;;;;;;14.52;10.52;;;12.50;99.90;;;;;;5042160;28;20118;-93
2023/04/21 07:39:20;;;;;;;18.55;10.13;;;12.50;99.90;;;;;;5022370;28;20464;-94
2023/04/21 07:41:46;;;;;;;18.15;10.32;;;12.50;99.90;;;;;;5038124;28;20045;-94
2023/04/21 07:44:11;;;;;;;18.50;10.23;;;12.50;99.90;;;;;;5044180;28;20049;-93
2023/04/21 07:46:40;;;;;;;19.13;10.05;;;12.60;99.90;;;;;;5040556;28;20724;-94
2023/04/21 07:49:06;;;;;;;15.65;10.35;;;12.80;99.90;;;;;;5023510;28;20579;-94
2023/04/21 07:51:31;;;;;;;19.33;11.30;;;12.90;99.90;;;;;;5020797;28;20068;-94
2023/04/21 07:53:57;;;;;;;20.13;10.45;;;13.10;99.90;;;;;;5038953;28;20047;-94
2023/04/21 07:56:23;;;;;;;17.15;10.13;;;13.10;99.90;;;;;;5042107;28;20052;-92
2023/04/21 07:58:49;;;;;;;16.58;9.90;;;13.20;99.90;;;;;;5024219;28;20396;-93
2023/04/21 08:01:14;;;;;;;16.63;10.10;;;13.20;99.90;;;;;;5028096;28;20478;-93
2023/04/21 08:03:40;;;;;;;14.90;9.82;;;13.20;99.90;;;;;;5039130;28;20041;-94
2023/04/21 08:06:06;;;;;;;15.60;10.25;;;13.30;99.90;;;;;;5025296;28;20036;-94
2023/04/21 08:08:32;;;;;;;17.17;9.57;;;13.40;99.90;;;;;;5026837;28;20124;-93
2023/04/21 08:10:57;;;;;;;18.48;9.90;;;13.40;99.90;;;;;;5027773;28;20120;-93
2023/04/21 08:13:24;;;;;;;16.40;9.77;;;13.60;99.90;;;;;;5025350;28;20052;-93
2023/04/21 08:15:53;;;;;;;16.10;9.45;;;13.60;99.90;;;;;;5046134;28;20128;-93
2023/04/21 08:18:19;;;;;;;16.95;10.23;;;13.60;99.90;;;;;;5037723;28;20378;-93
2023/04/21 08:20:48;;;;;;;15.55;10.15;;;13.60;99.90;;;;;;5023738;28;20423;-93
2023/04/21 08:23:15;;;;;;;16.13;9.70;;;13.80;99.90;;;;;;5040007;28;20122;-94
2023/04/21 08:25:40;;;;;;;15.48;9.82;;;13.80;99.90;;;;;;5026136;28;20044;-92
2023/04/21 08:28:06;;;;;;;18.08;9.32;;;14.00;99.90;;;;;;5024000;28;20052;-93
2023/04/21 08:30:32;;;;;;;16.65;9.70;;;14.10;99.90;;;;;;5021579;28;20055;-94
2023/04/21 08:32:58;;;;;;;19.58;9.85;;;14.10;99.90;;;;;;5023141;28;20033;-93
2023/04/21 08:35:24;;;;;;;13.93;9.20;;;14.30;99.90;;;;;;5022897;28;20041;-93
2023/04/21 08:37:53;;;;;;;16.83;9.98;;;14.40;99.90;;;;;;5044811;28;20049;-94
2023/04/21 08:40:19;;;;;;;17.02;9.98;;;14.50;99.90;;;;;;5021572;28;20484;-94
2023/04/21 08:42:45;;;;;;;16.45;9.27;;;14.50;99.90;;;;;;5028698;28;20097;-94
2023/04/21 08:45:11;;;;;;;17.10;8.93;;;14.70;99.90;;;;;;5028802;28;20044;-94
2023/04/21 08:47:39;;;;;;;15.85;9.45;;;14.70;99.90;;;;;;5037196;28;20056;-93
2023/04/21 08:50:10;;;;;;;14.90;9.77;;;14.80;99.90;;;;;;5044121;28;20057;-93
2023/04/21 08:52:36;;;;;;;13.50;9.40;;;14.90;99.90;;;;;;5040880;28;20134;-93
2023/04/21 08:55:02;;;;;;;16.88;9.43;;;15.20;99.90;;;;;;5030270;28;20107;-93
2023/04/21 08:57:28;;;;;;;18.73;9.55;;;15.40;99.90;;;;;;5027684;28;20041;-94
2023/04/21 08:59:54;;;;;;;17.00;9.70;;;15.40;99.90;;;;;;5019985;28;20531;-93
2023/04/21 09:02:22;;;;;;;17.85;9.52;;;15.60;99.90;;;;;;5026601;28;20048;-93
2023/04/21 09:04:50;;;;;;;16.40;9.40;;;15.70;99.90;;;;;;5023458;28;20047;-94
2023/04/21 09:07:33;;;;;;;12.57;9.52;;;15.80;99.90;;;;;;5039843;28;20080;-93
2023/04/21 09:10:00;;;;;;;14.63;9.75;;;15.80;70.60;;;;;;5025411;28;20036;-94
2023/04/21 09:12:26;;;;;;;17.80;9.48;;;16.10;99.90;;;;;;5027534;28;20476;-93
2023/04/21 09:14:52;;;;;;;15.18;9.15;;;15.80;99.90;;;;;;5028079;28;20045;-93
2023/04/21 09:17:27;;;;;;;14.80;9.90;;;16.00;99.90;;;;;;5037274;28;20051;-93
2023/04/21 09:19:53;;;;;;;14.75;9.77;;;16.10;99.90;;;;;;5027433;28;20043;-93
2023/04/21 09:22:19;;;;;;;14.05;8.88;;;16.40;99.90;;;;;;5026478;28;20436;-93
2023/04/21 09:24:48;;;;;;;16.15;8.82;;;16.40;1.00;;;;;;5024634;28;20091;-94
2023/04/21 09:27:16;;;;;;;15.38;9.07;;;16.50;99.90;;;;;;5023392;28;20049;-94
2023/04/21 09:29:47;;;;;;;13.73;8.82;;;16.60;1.00;;;;;;5041250;28;20037;-93
2023/04/21 09:32:17;;;;;;;15.40;9.15;;;16.70;1.00;;;;;;5043431;28;20153;-93
2023/04/21 09:34:43;;;;;;;12.38;9.18;;;16.70;1.00;;;;;;5024205;28;20128;-93
2023/04/21 09:37:10;;;;;;;15.05;8.77;;;16.80;99.90;;;;;;5040203;28;20033;-93
2023/04/21 09:39:37;;;;;;;17.27;9.75;;;16.80;99.90;;;;;;5037158;28;20099;-93
2023/04/21 09:42:02;;;;;;;13.13;9.50;;;17.00;99.90;;;;;;5040446;28;20659;-93
2023/04/21 09:44:28;;;;;;;14.63;9.10;;;17.10;20.20;;;;;;5038034;28;20037;-93
2023/04/21 09:47:03;;;;;;;14.68;9.32;;;17.30;99.90;;;;;;5021801;28;20082;-93
2023/04/21 09:49:30;;;;;;;;;;;17.00;99.90;;;;;;5055675;28;20045;-94
2023/04/21 09:52:00;;;;;;;15.85;8.60;;;16.90;99.90;;;;;;5030669;28;20000;-93
2023/04/21 09:54:31;;;;;;;15.93;8.68;;;17.40;99.90;;;;;;5024313;28;20045;-93
2023/04/21 09:57:00;;;;;;;13.57;9.02;;;17.50;22.90;;;;;;5021024;28;20074;-93
2023/04/21 09:59:33;;;;;;;16.58;8.65;;;17.70;1.00;;;;;;5036187;28;20056;-93
2023/04/21 10:02:01;;;;;;;13.90;8.95;;;17.70;1.00;;;;;;5038861;28;20569;-93
2023/04/21 10:04:30;;;;;;;12.35;8.98;;;17.60;99.90;;;;;;5020144;28;20045;-94
2023/04/21 10:06:57;;;;;;;15.25;8.82;;;17.90;1.00;;;;;;5022219;28;20562;-94
2023/04/21 10:09:37;;;;;;;15.93;9.40;;;17.90;12.10;;;;;;5021406;28;20041;-94
2023/04/21 10:12:03;;;;;;;17.98;8.95;;;18.10;1.00;;;;;;5042140;28;20034;-92
2023/04/21 10:14:29;;;;;;;13.13;8.50;;;18.10;1.00;;;;;;5040677;28;20104;-91
2023/04/21 10:17:06;;;;;;;13.75;8.88;;;18.30;99.90;;;;;;5040040;28;20465;-93
2023/04/21 10:19:40;;;;;;;15.45;9.43;;;18.50;1.00;;;;;;5021773;28;20046;-94
2023/04/21 10:22:10;;;;;;;13.88;8.90;;;18.50;99.90;;;;;;5021755;28;20060;-94
2023/04/21 10:24:40;;;;;;;17.27;8.90;;;18.60;99.90;;;;;;5040685;28;20033;-94
2023/04/21 10:27:29;;;;;;;14.05;8.68;;;18.60;99.90;;;;;;5019317;28;20044;-92
2023/04/21 10:29:57;;;;;;;13.75;8.93;;;18.80;99.90;;;;;;5031122;28;20091;-92
2023/04/21 10:32:40;;;;;;;16.70;8.85;;;19.10;99.90;;;;;;5016956;28;20384;-92
2023/04/21 10:35:21;;;;;;;15.52;8.88;;;19.30;99.90;;;;;;5021278;28;20033;-93
2023/04/21 10:37:48;;;;;;;13.30;9.10;;;19.20;1.00;;;;;;5016233;28;20041;-92
2023/04/21 10:40:34;;;;;;;12.20;8.68;;;19.10;99.90;;;;;;5034769;28;20048;-92
2023/04/21 10:43:02;;;;;;;12.93;8.60;;;19.30;99.90;;;;;;5034778;28;20494;-92
2023/04/21 10:45:30;;;;;;;10.43;7.80;;;19.50;99.90;;;;;;5017556;28;20389;-92
2023/04/21 10:48:00;;;;;;;14.43;8.82;;;19.60;99.90;;;;;;5015014;28;20095;-92
2023/04/21 10:50:30;;;;;;;11.63;8.32;;;19.50;99.90;;;;;;5023169;28;20496;-92
2023/04/21 10:53:12;;;;;;;12.30;8.15;;;19.50;99.90;;;;;;5018650;28;20120;-92
2023/04/21 10:55:38;;;;;;;12.85;8.02;;;19.70;99.90;;;;;;5019438;28;20063;-93
2023/04/21 10:58:08;;;;;;;11.93;8.30;;;19.90;99.90;;;;;;5015525;28;20081;-93
2023/04/21 11:00:37;;;;;;;14.43;7.40;;;19.90;99.90;;;;;;5019794;28;20302;-91
2023/04/21 11:03:05;;;;;;;14.85;8.38;;;19.80;21.60;;;;;;5021946;28;20460;-92
2023/04/21 11:05:39;;;;;;;14.57;7.72;;;20.20;91.90;;;;;;5035702;28;20939;-93
2023/04/21 11:08:06;;;;;;;12.68;7.90;;;20.40;99.90;;;;;;5024537;28;20037;-92
2023/04/21 11:10:54;;;;;;;13.73;7.97;;;20.50;7.10;;;;;;5017602;28;20338;-92
2023/04/21 11:13:21;;;;;;;13.80;7.60;;;20.30;1.00;;;;;;5017767;28;20061;-93
2023/04/21 11:16:06;;;;;;;12.30;7.40;;;20.50;1.00;;;;;;5034716;28;20127;-93
2023/04/21 11:18:40;;;;;;;12.82;7.85;;;20.30;1.00;;;;;;5039574;28;20067;-93
2023/04/21 11:21:16;;;;;;;12.50;7.50;;;20.40;1.00;;;;;;5022656;28;20484;-93
2023/04/21 11:24:08;;;;;;;12.05;7.43;;;20.10;1.00;;;;;;5020115;28;20532;-90
2023/04/21 11:26:37;;;;;;;10.60;6.85;;;19.80;99.90;;;;;;5019440;28;20307;-91
2023/04/21 11:29:07;;;;;;;10.80;6.05;;;20.30;1.00;;;;;;5019755;28;20073;-92
2023/04/21 11:31:34;;;;;;;10.75;5.60;;;20.80;99.90;;;;;;5016738;28;20041;-92
2023/04/21 11:34:00;;;;;;;8.88;4.63;;;20.60;99.90;;;;;;5038605;28;20033;-90
2023/04/21 11:36:34;;;;;;;12.23;5.50;;;20.00;99.90;;;;;;5015523;28;20119;-92
2023/04/21 11:39:07;;;;;;;11.55;5.18;;;20.40;99.90;;;;;;5037933;28;20037;-92
2023/04/21 11:41:32;;;;;;;10.07;5.05;;;20.40;99.90;;;;;;5018346;28;20077;-92
2023/04/21 11:44:01;;;;;;;9.98;5.10;;;21.00;99.90;;;;;;5032657;28;20470;-91
2023/04/21 11:46:28;;;;;;;9.20;5.00;;;21.50;99.90;;;;;;5019697;28;20045;-91
2023/04/21 11:49:05;;;;;;;13.70;5.60;;;21.00;99.90;;;;;;5036522;28;20091;-92
2023/04/21 11:51:42;;;;;;;9.52;5.05;;;21.00;99.90;;;;;;5018530;28;20036;-91
2023/04/21 11:54:12;;;;;;;9.27;4.55;;;20.80;99.90;;;;;;5035904;28;20064;-91
2023/04/21 11:56:40;;;;;;;7.40;4.82;;;21.30;99.90;;;;;;5018176;28;20049;-92
2023/04/21 11:59:14;;;;;;;9.68;4.65;;;21.60;99.90;;;;;;5017787;28;20041;-92
2023/04/21 12:01:51;;;;;;;5.95;4.45;;;21.20;85.50;;;;;;5037198;28;20044;-91
2023/04/21 12:04:23;;;;;;;11.05;4.53;;;20.60;1.00;;;;;;5027561;28;20033;-91
2023/04/21 12:07:00;;;;;;;15.55;4.22;;;20.10;1.00;;;;;;5021966;28;20211;-92
2023/04/21 12:09:27;;;;;;;6.97;4.40;;;19.90;1.00;;;;;;5024461;28;20044;-92
2023/04/21 12:12:00;;;;;;;9.45;4.03;;;20.20;1.00;;;;;;5038168;28;20033;-92
2023/04/21 12:14:26;;;;;;;11.88;4.53;;;20.80;1.00;;;;;;5023764;28;20754;-93
2023/04/21 12:16:57;;;;;;;12.95;4.88;;;21.00;1.00;;;;;;5027192;28;20053;-92
2023/04/21 12:19:40;;;;;;;10.60;4.10;;;21.00;1.00;;;;;;5022005;28;20048;-92
2023/04/21 12:22:18;;;;;;;9.30;4.47;;;21.40;1.00;;;;;;5022030;28;20041;-91
2023/04/21 12:24:45;;;;;;;8.20;4.43;;;21.50;1.00;;;;;;5022026;28;20072;-91
2023/04/21 12:27:11;;;;;;;9.82;4.53;;;21.50;1.00;;;;;;5037892;28;20036;-90
2023/04/21 12:29:38;;;;;;;10.05;4.78;;;21.80;1.00;;;;;;5025702;28;20056;-91
2023/04/21 12:32:05;;;;;;;10.90;4.35;;;21.40;1.00;;;;;;5021567;28;20044;-93
2023/04/21 12:34:30;;;;;;;8.60;4.50;;;21.90;1.00;;;;;;5038106;28;20029;-92
2023/04/21 12:36:56;;;;;;;9.23;4.68;;;22.40;1.00;;;;;;5040696;28;20067;-91
2023/04/21 12:39:22;;;;;;;8.13;3.97;;;22.40;1.00;;;;;;5042880;28;20045;-92